Time;durP1;ratioP1;P1;durP2;ratioP2;P2;SDS_P1;SDS_P2;PMS_P1;PMS_P2;Temp;Humidity;BMP_temperature;BMP_pressure;BME280_temperature;BME280_humidity;BME280_pressure;Samples;Min_cycle;Max_cycle;Signal;HPM_P1;HPM_P2
2022/03/26 00:02:11;;;;;;;30.33;24.93;;;13.10;27.60;;;;;;20613;6879;122089;-78
2022/03/26 00:04:37;;;;;;;32.20;28.12;;;12.70;27.80;;;;;;20401;6879;309006;-75
2022/03/26 00:07:03;;;;;;;28.90;24.07;;;12.70;28.30;;;;;;20606;6879;117694;-71
2022/03/26 00:09:28;;;;;;;32.27;24.90;;;12.60;28.20;;;;;;20616;6879;117804;-72
2022/03/26 00:11:55;;;;;;;30.30;25.00;;;12.10;28.40;;;;;;20596;6879;118170;-72
2022/03/26 00:14:20;;;;;;;31.87;26.03;;;12.10;28.40;;;;;;20616;6879;117776;-79
2022/03/26 00:16:46;;;;;;;32.08;28.55;;;12.00;28.50;;;;;;20404;6879;308478;-78
2022/03/26 00:19:11;;;;;;;33.40;25.77;;;12.20;28.90;;;;;;20625;6879;117845;-72
2022/03/26 00:21:37;;;;;;;27.98;24.48;;;12.20;28.60;;;;;;20605;6879;118179;-73
2022/03/26 00:24:03;;;;;;;32.03;28.73;;;12.00;28.60;;;;;;20410;6879;345929;-72
2022/03/26 00:26:29;;;;;;;29.60;25.07;;;12.20;28.90;;;;;;20627;6879;121654;-71
2022/03/26 00:28:56;;;;;;;32.00;27.92;;;12.30;28.90;;;;;;20413;6879;279863;-73
2022/03/26 00:31:21;;;;;;;32.20;24.97;;;12.30;28.80;;;;;;20619;6879;118218;-75
2022/03/26 00:33:47;;;;;;;34.13;24.77;;;12.20;28.60;;;;;;20602;6879;148240;-73
2022/03/26 00:36:12;;;;;;;32.45;28.25;;;12.00;28.70;;;;;;20404;6879;339524;-72
2022/03/26 00:38:38;;;;;;;35.63;24.77;;;12.20;29.20;;;;;;20619;6879;118084;-77
2022/03/26 00:41:03;;;;;;;31.97;27.23;;;12.10;28.90;;;;;;20408;6879;279904;-77
2022/03/26 00:43:29;;;;;;;31.27;28.00;;;12.20;28.90;;;;;;20408;6879;305536;-77
2022/03/26 00:45:54;;;;;;;31.57;28.00;;;12.50;28.80;;;;;;20380;6879;309055;-77
2022/03/26 00:48:20;;;;;;;30.50;27.27;;;12.70;28.50;;;;;;20408;6879;313494;-75
2022/03/26 00:50:45;;;;;;;31.27;24.70;;;12.90;28.40;;;;;;20620;6879;117883;-71
2022/03/26 00:53:11;;;;;;;31.33;27.93;;;12.60;28.20;;;;;;20405;6879;312433;-77
2022/03/26 00:55:36;;;;;;;28.53;23.30;;;12.60;28.60;;;;;;20602;6879;119865;-73
2022/03/26 00:58:02;;;;;;;31.60;26.37;;;12.40;28.50;;;;;;20408;6877;301035;-78
2022/03/26 01:00:28;;;;;;;33.58;27.98;;;12.50;28.70;;;;;;20421;6878;280176;-71
2022/03/26 01:02:53;;;;;;;31.80;24.17;;;12.60;28.40;;;;;;20623;6879;118959;-71
2022/03/26 01:05:19;;;;;;;28.50;24.13;;;12.40;28.30;;;;;;20623;6879;123576;-76
2022/03/26 01:07:46;;;;;;;32.70;26.63;;;12.20;28.50;;;;;;20392;6879;309107;-71
2022/03/26 01:10:11;;;;;;;28.00;23.13;;;12.10;28.80;;;;;;20610;6879;117891;-74
2022/03/26 01:12:37;;;;;;;30.40;24.00;;;11.90;29.00;;;;;;20614;6879;117813;-74
2022/03/26 01:15:03;;;;;;;31.77;22.73;;;11.90;29.00;;;;;;20618;6879;118223;-71
2022/03/26 01:17:28;;;;;;;26.93;22.50;;;11.70;29.00;;;;;;20617;6879;117703;-71
2022/03/26 01:19:54;;;;;;;30.70;22.87;;;11.50;29.10;;;;;;20602;6879;119341;-71
2022/03/26 01:22:19;;;;;;;30.90;26.93;;;11.40;29.20;;;;;;20403;6879;311649;-77
2022/03/26 01:24:45;;;;;;;27.07;24.37;;;11.70;29.90;;;;;;20415;6879;279168;-72
2022/03/26 01:27:10;;;;;;;30.47;22.40;;;12.10;30.00;;;;;;20618;6879;118322;-72
2022/03/26 01:29:38;;;;;;;27.23;24.37;;;12.00;29.70;;;;;;20380;6879;313693;-72
2022/03/26 01:32:03;;;;;;;28.67;25.53;;;12.20;30.10;;;;;;20404;6879;327226;-78
2022/03/26 01:34:28;;;;;;;29.10;23.17;;;12.40;29.00;;;;;;20619;6879;122632;-73
2022/03/26 01:36:54;;;;;;;27.07;22.70;;;12.30;29.00;;;;;;20621;6879;117678;-74
2022/03/26 01:39:22;;;;;;;26.43;21.33;;;12.00;29.30;;;;;;20623;6879;118165;-74
2022/03/26 01:41:46;;;;;;;28.47;22.07;;;11.50;29.80;;;;;;20592;6879;118096;-73
2022/03/26 01:44:15;;;;;;;27.83;22.70;;;11.40;29.70;;;;;;20615;6879;120287;-72
2022/03/26 01:47:03;;;;;;;27.23;24.33;;;11.30;29.90;;;;;;20402;6879;303751;-74
2022/03/26 01:49:37;;;;;;;27.77;22.63;;;11.50;30.50;;;;;;20804;6758;118054;-73
2022/03/26 01:52:13;;;;;;;28.53;22.33;;;11.50;30.00;;;;;;20619;6758;118559;-72
2022/03/26 01:54:49;;;;;;;27.53;21.87;;;11.30;30.00;;;;;;20788;6771;122442;-70
2022/03/26 01:57:25;;;;;;;29.10;24.47;;;11.10;30.00;;;;;;20584;6774;306340;-74
2022/03/26 02:00:01;;;;;;;28.17;22.47;;;11.40;30.00;;;;;;20777;6766;117594;-71
2022/03/26 02:02:37;;;;;;;26.73;21.30;;;11.40;29.90;;;;;;20662;6807;117860;-71
2022/03/26 02:05:12;;;;;;;29.95;26.73;;;11.20;29.90;;;;;;20473;6802;308276;-73
2022/03/26 02:07:47;;;;;;;29.27;23.97;;;11.50;30.30;;;;;;20676;6802;118119;-74
2022/03/26 02:10:23;;;;;;;31.67;24.57;;;11.40;30.00;;;;;;20645;6785;117438;-71
2022/03/26 02:12:59;;;;;;;30.30;26.65;;;11.20;30.00;;;;;;20577;6768;277634;-74
2022/03/26 02:15:37;;;;;;;33.03;27.87;;;11.70;29.90;;;;;;20537;6776;299516;-74
2022/03/26 02:18:12;;;;;;;32.80;26.07;;;11.70;29.90;;;;;;20750;6783;118193;-74
2022/03/26 02:20:48;;;;;;;28.65;25.60;;;11.50;29.70;;;;;;20528;6755;342584;-73
2022/03/26 02:23:23;;;;;;;33.75;27.87;;;11.60;30.10;;;;;;20683;6735;281135;-71
2022/03/26 02:25:59;;;;;;;32.73;27.87;;;12.00;29.70;;;;;;20606;6754;276899;-70
2022/03/26 02:28:35;;;;;;;28.87;24.83;;;12.00;29.70;;;;;;20831;6754;120916;-70
2022/03/26 02:31:11;;;;;;;34.63;25.77;;;11.70;29.70;;;;;;20743;6754;117462;-73
2022/03/26 02:33:46;;;;;;;30.35;27.15;;;11.30;29.90;;;;;;20608;6754;344257;-70
2022/03/26 02:36:22;;;;;;;32.85;28.40;;;11.30;30.30;;;;;;20635;6765;280303;-70
2022/03/26 02:38:57;;;;;;;31.17;24.90;;;11.60;30.00;;;;;;20839;6754;117591;-72
2022/03/26 02:41:34;;;;;;;30.83;27.13;;;11.30;29.80;;;;;;20501;6754;283830;-75
2022/03/26 02:44:09;;;;;;;30.23;25.77;;;11.40;30.20;;;;;;20834;6750;117673;-71
2022/03/26 02:46:45;;;;;;;30.25;26.67;;;11.30;31.00;;;;;;20605;6759;280088;-70
2022/03/26 02:49:20;;;;;;;28.67;24.20;;;11.20;30.80;;;;;;20810;6751;117521;-71
2022/03/26 02:51:57;;;;;;;31.85;27.35;;;11.20;30.90;;;;;;20424;6761;310003;-71
2022/03/26 02:54:32;;;;;;;29.03;23.83;;;11.20;30.90;;;;;;20826;6762;117882;-71
2022/03/26 02:57:08;;;;;;;29.90;24.77;;;11.10;30.70;;;;;;20841;6766;117521;-73
2022/03/26 02:59:47;;;;;;;31.33;28.02;;;10.80;30.90;;;;;;20615;6766;305825;-72
2022/03/26 03:02:20;;;;;;;32.20;28.77;;;11.10;30.80;;;;;;20375;6837;309327;-74
2022/03/26 03:04:55;;;;;;;31.67;27.70;;;11.10;30.70;;;;;;20767;6766;119132;-71
2022/03/26 03:07:32;;;;;;;28.53;24.33;;;10.90;30.60;;;;;;20748;6769;120519;-72
2022/03/26 03:10:07;;;;;;;30.50;27.33;;;10.60;31.00;;;;;;20605;6754;307046;-73
2022/03/26 03:12:44;;;;;;;32.88;29.37;;;11.00;31.90;;;;;;20623;6754;306810;-75
2022/03/26 03:15:18;;;;;;;33.27;29.83;;;10.90;31.80;;;;;;20563;6771;303315;-74
2022/03/26 03:17:54;;;;;;;32.87;26.97;;;11.20;30.90;;;;;;20690;6771;117845;-70
2022/03/26 03:20:30;;;;;;;32.23;25.70;;;10.80;30.80;;;;;;20717;6777;119701;-74
2022/03/26 03:23:05;;;;;;;32.63;24.67;;;10.40;31.10;;;;;;20757;6779;118275;-71
2022/03/26 03:25:41;;;;;;;32.53;29.10;;;10.00;31.50;;;;;;20460;6802;307204;-71
2022/03/26 03:28:16;;;;;;;32.47;25.53;;;10.10;32.50;;;;;;20671;6803;119318;-71
2022/03/26 03:30:52;;;;;;;33.60;26.17;;;9.90;33.10;;;;;;20672;6784;117593;-71
2022/03/26 03:33:27;;;;;;;29.97;23.23;;;9.60;33.30;;;;;;20703;6809;122114;-73
2022/03/26 03:36:03;;;;;;;32.15;28.65;;;9.30;33.40;;;;;;20538;6797;283147;-70
2022/03/26 03:38:39;;;;;;;29.70;24.37;;;9.60;34.20;;;;;;20743;6797;117657;-71
2022/03/26 03:41:14;;;;;;;30.75;27.45;;;9.60;33.80;;;;;;20399;6807;310595;-71
2022/03/26 03:43:50;;;;;;;31.33;27.95;;;9.80;34.10;;;;;;20539;6771;294923;-73
2022/03/26 03:46:25;;;;;;;32.03;25.67;;;10.20;32.80;;;;;;20680;6804;117659;-71
2022/03/26 03:49:01;;;;;;;31.53;28.13;;;10.10;32.50;;;;;;20560;6801;278542;-73
2022/03/26 03:51:37;;;;;;;30.10;24.77;;;10.20;32.50;;;;;;20632;6772;118096;-71
2022/03/26 03:54:13;;;;;;;29.23;26.02;;;10.00;32.30;;;;;;20530;6784;336952;-74
2022/03/26 03:56:48;;;;;;;30.88;27.67;;;10.10;32.90;;;;;;20507;6780;340717;-72
2022/03/26 03:59:23;;;;;;;31.30;28.15;;;10.30;32.30;;;;;;20491;6799;308041;-74
2022/03/26 04:01:59;;;;;;;31.60;26.00;;;10.50;31.90;;;;;;20582;6781;119748;-71
2022/03/26 04:04:34;;;;;;;31.93;28.17;;;10.20;31.80;;;;;;20543;6781;307337;-71
2022/03/26 04:07:10;;;;;;;32.67;29.17;;;10.10;32.20;;;;;;20530;6783;337648;-74
2022/03/26 04:09:46;;;;;;;32.58;29.17;;;10.20;32.10;;;;;;20519;6783;306750;-71
2022/03/26 04:12:21;;;;;;;30.60;25.90;;;10.40;32.00;;;;;;20548;6848;118344;-72
2022/03/26 04:14:57;;;;;;;32.58;28.75;;;10.00;31.90;;;;;;20539;6777;336364;-71
2022/03/26 04:17:32;;;;;;;32.45;28.50;;;10.00;32.50;;;;;;20478;6798;277976;-70
2022/03/26 04:20:09;;;;;;;30.97;25.90;;;10.10;32.40;;;;;;20681;6800;117872;-70
2022/03/26 04:22:43;;;;;;;30.57;24.77;;;9.80;33.30;;;;;;20673;6814;118124;-73
2022/03/26 04:25:19;;;;;;;29.07;23.67;;;9.40;33.70;;;;;;20747;6783;117362;-70
2022/03/26 04:27:55;;;;;;;31.00;24.50;;;9.10;34.20;;;;;;20728;6783;119905;-71
2022/03/26 04:30:30;;;;;;;34.07;25.50;;;8.80;34.50;;;;;;20662;6794;119241;-73
2022/03/26 04:33:06;;;;;;;33.35;29.48;;;8.60;34.60;;;;;;20570;6779;306360;-70
2022/03/26 04:35:41;;;;;;;28.63;23.43;;;8.80;35.60;;;;;;20827;6748;119616;-71
2022/03/26 04:38:17;;;;;;;32.87;25.33;;;8.80;35.10;;;;;;20693;6793;121909;-74
2022/03/26 04:40:52;;;;;;;36.30;25.03;;;8.70;35.20;;;;;;20612;6797;117775;-72
2022/03/26 04:43:28;;;;;;;32.03;28.60;;;8.50;35.20;;;;;;20495;6792;308168;-70
2022/03/26 04:46:04;;;;;;;33.65;30.05;;;8.70;35.80;;;;;;20384;6825;308679;-74
2022/03/26 04:48:39;;;;;;;34.87;26.23;;;9.10;35.30;;;;;;20652;6814;119505;-71
2022/03/26 04:51:15;;;;;;;30.07;25.23;;;8.90;34.80;;;;;;20506;6828;117459;-74
2022/03/26 04:53:50;;;;;;;33.53;29.92;;;8.70;35.10;;;;;;20438;6813;286852;-74
2022/03/26 04:56:26;;;;;;;32.80;25.57;;;8.80;35.70;;;;;;20618;6823;123426;-70
2022/03/26 04:59:02;;;;;;;32.85;29.33;;;8.80;35.40;;;;;;20606;6762;306454;-71
2022/03/26 05:01:37;;;;;;;29.97;25.73;;;8.90;35.60;;;;;;20706;6762;124015;-71
2022/03/26 05:04:13;;;;;;;34.20;30.50;;;8.90;35.30;;;;;;20575;6781;315804;-70
2022/03/26 05:06:49;;;;;;;37.20;31.45;;;9.20;34.80;;;;;;20487;6792;281314;-70
2022/03/26 05:09:25;;;;;;;34.90;31.20;;;9.20;34.80;;;;;;20496;6795;307332;-72
2022/03/26 05:12:00;;;;;;;31.37;27.03;;;9.40;34.50;;;;;;20583;6792;118273;-73
2022/03/26 05:14:36;;;;;;;35.10;31.30;;;9.20;34.50;;;;;;20545;6759;339241;-73
2022/03/26 05:17:12;;;;;;;38.00;28.03;;;9.10;34.90;;;;;;20747;6774;117467;-71
2022/03/26 05:19:47;;;;;;;35.00;31.17;;;8.90;34.80;;;;;;20531;6775;335567;-72
2022/03/26 05:22:23;;;;;;;32.83;29.30;;;8.90;35.30;;;;;;20360;6836;338660;-73
2022/03/26 05:24:58;;;;;;;35.73;27.30;;;9.20;35.50;;;;;;20758;6775;121314;-71
2022/03/26 05:27:34;;;;;;;30.77;25.90;;;9.00;35.30;;;;;;20745;6775;117456;-72
2022/03/26 05:30:10;;;;;;;31.47;24.33;;;8.70;35.50;;;;;;20742;6775;118078;-70
2022/03/26 05:32:45;;;;;;;32.40;25.33;;;8.50;35.90;;;;;;20769;6775;117305;-70
2022/03/26 05:35:21;;;;;;;35.70;27.20;;;8.30;36.10;;;;;;20769;6775;116456;-70
2022/03/26 05:37:57;;;;;;;32.43;26.60;;;8.00;36.80;;;;;;20745;6775;117918;-70
2022/03/26 05:40:33;;;;;;;35.22;31.37;;;8.00;36.20;;;;;;20482;6794;313801;-71
2022/03/26 05:43:08;;;;;;;34.97;31.23;;;8.30;36.60;;;;;;20500;6794;308491;-70
2022/03/26 05:45:50;;;;;;;33.10;29.50;;;9.10;36.20;;;;;;20521;6779;277586;-70
2022/03/26 05:48:20;;;;;;;34.00;30.37;;;9.10;36.10;;;;;;20544;6793;336452;-70
2022/03/26 05:50:56;;;;;;;32.65;29.20;;;9.60;35.00;;;;;;20444;6784;339763;-70
2022/03/26 05:53:32;;;;;;;34.30;30.57;;;9.60;35.00;;;;;;20502;6793;306658;-70
2022/03/26 05:56:08;;;;;;;32.25;28.92;;;9.90;34.80;;;;;;20504;6794;345836;-70
2022/03/26 05:58:43;;;;;;;30.77;26.33;;;10.10;33.70;;;;;;20669;6808;117965;-70
2022/03/26 06:01:21;;;;;;;34.38;30.65;;;10.20;33.70;;;;;;20386;6794;338930;-71
2022/03/26 06:03:55;;;;;;;33.40;29.85;;;10.20;33.70;;;;;;20507;6784;277980;-70
2022/03/26 06:06:31;;;;;;;33.80;30.20;;;10.60;33.40;;;;;;20503;6784;308010;-71
2022/03/26 06:09:06;;;;;;;33.13;29.57;;;10.90;33.30;;;;;;20569;6770;308181;-71
2022/03/26 06:11:42;;;;;;;32.53;29.23;;;11.10;32.60;;;;;;20392;6770;309059;-70
2022/03/26 06:14:18;;;;;;;32.30;28.80;;;11.40;32.40;;;;;;20572;6770;282336;-71
2022/03/26 06:16:53;;;;;;;26.53;23.73;;;11.60;32.10;;;;;;20779;6770;117375;-71
2022/03/26 06:19:28;;;;;;;35.13;25.03;;;11.40;32.40;;;;;;20781;6770;118588;-71
2022/03/26 06:22:05;;;;;;;33.38;29.55;;;11.30;32.50;;;;;;20377;6770;306304;-71
2022/03/26 06:24:40;;;;;;;30.40;27.20;;;11.30;32.50;;;;;;20575;6770;277922;-72
2022/03/26 06:27:16;;;;;;;29.23;23.77;;;11.70;32.50;;;;;;20721;6799;118087;-72
2022/03/26 06:29:52;;;;;;;33.10;25.67;;;11.60;32.30;;;;;;20646;6805;118071;-79
2022/03/26 06:32:27;;;;;;;33.90;25.60;;;11.40;32.50;;;;;;20760;6780;117542;-69
2022/03/26 06:35:04;;;;;;;32.13;28.65;;;11.20;32.70;;;;;;20497;6795;307396;-71
2022/03/26 06:37:38;;;;;;;34.13;25.83;;;11.30;32.70;;;;;;20643;6810;118867;-71
2022/03/26 06:40:14;;;;;;;31.17;28.00;;;11.20;32.60;;;;;;20400;6810;280973;-71
2022/03/26 06:42:50;;;;;;;28.53;24.77;;;11.50;32.70;;;;;;20677;6817;118464;-74
2022/03/26 06:45:26;;;;;;;31.73;28.62;;;11.60;32.40;;;;;;20470;6810;340120;-74
2022/03/26 06:48:02;;;;;;;29.40;26.17;;;11.60;32.30;;;;;;20680;6798;117574;-73
2022/03/26 06:50:37;;;;;;;30.30;27.13;;;11.60;32.30;;;;;;20451;6781;281003;-82
2022/03/26 06:53:10;;;;;;;31.73;28.33;;;11.80;32.10;;;;;;21021;6486;305930;-73
2022/03/26 06:55:35;;;;;;;26.50;23.70;;;12.20;31.80;;;;;;20921;6777;117685;-80
2022/03/26 06:58:01;;;;;;;27.85;22.27;;;12.10;31.70;;;;;;20945;6775;117392;-79
2022/03/26 07:00:26;;;;;;;26.77;23.63;;;12.00;32.00;;;;;;20923;6758;117599;-74
2022/03/26 07:02:52;;;;;;;27.40;24.70;;;11.80;32.20;;;;;;20532;6827;338262;-80
2022/03/26 07:05:18;;;;;;;25.83;23.00;;;12.00;32.20;;;;;;20718;6842;117770;-75
2022/03/26 07:07:43;;;;;;;27.70;22.57;;;12.20;32.20;;;;;;20746;6827;121467;-74
2022/03/26 07:10:09;;;;;;;26.20;23.40;;;12.10;32.10;;;;;;20803;6814;122110;-75
2022/03/26 07:12:35;;;;;;;29.02;25.90;;;12.00;32.10;;;;;;20558;6827;308684;-73
2022/03/26 07:15:00;;;;;;;27.17;23.30;;;12.30;31.60;;;;;;20743;6827;118021;-73
2022/03/26 07:17:26;;;;;;;29.83;26.67;;;12.40;31.60;;;;;;20545;6820;336207;-79
2022/03/26 07:19:51;;;;;;;28.55;25.67;;;12.60;31.80;;;;;;20566;6821;281424;-78
2022/03/26 07:22:17;;;;;;;29.23;26.33;;;13.00;31.30;;;;;;20557;6813;283401;-74
2022/03/26 07:24:43;;;;;;;30.73;25.88;;;13.40;31.00;;;;;;20578;6813;336280;-75
2022/03/26 07:27:08;;;;;;;28.83;23.10;;;13.80;30.60;;;;;;20810;6813;117514;-79
2022/03/26 07:29:38;;;;;;;28.98;26.00;;;13.90;30.80;;;;;;20566;6822;336670;-77
2022/03/26 07:32:00;;;;;;;27.87;24.87;;;13.80;30.70;;;;;;20741;6822;117702;-75
2022/03/26 07:34:26;;;;;;;29.80;26.83;;;14.00;31.00;;;;;;20633;6806;282151;-76
2022/03/26 07:36:52;;;;;;;27.50;24.60;;;14.00;30.90;;;;;;20825;6806;118736;-70
2022/03/26 07:39:18;;;;;;;24.63;22.23;;;14.00;31.00;;;;;;20830;6807;118091;-69
2022/03/26 07:41:43;;;;;;;26.08;23.48;;;13.90;31.20;;;;;;20811;6807;117585;-77
2022/03/26 07:44:09;;;;;;;29.40;26.33;;;13.80;31.50;;;;;;20628;6802;306729;-75
2022/03/26 07:46:34;;;;;;;27.90;24.93;;;14.10;31.40;;;;;;20874;6802;67680;-74
2022/03/26 07:49:00;;;;;;;30.53;27.43;;;14.60;31.20;;;;;;20638;6802;329748;-73
2022/03/26 07:51:26;;;;;;;28.10;25.23;;;14.60;31.20;;;;;;20774;6827;117418;-70
2022/03/26 07:53:54;;;;;;;31.30;28.02;;;14.80;31.10;;;;;;20548;6820;321125;-73
2022/03/26 07:56:19;;;;;;;26.33;23.77;;;15.00;30.70;;;;;;20846;6804;118070;-74
2022/03/26 07:58:45;;;;;;;29.73;26.83;;;15.20;30.70;;;;;;20632;6804;276913;-72
2022/03/26 08:01:10;;;;;;;29.10;26.03;;;15.40;30.00;;;;;;20851;6804;118767;-71
2022/03/26 08:03:36;;;;;;;27.03;24.13;;;15.50;30.00;;;;;;20832;6802;121829;-72
2022/03/26 08:06:01;;;;;;;31.10;27.98;;;15.40;30.00;;;;;;20636;6803;335907;-72
2022/03/26 08:08:28;;;;;;;28.10;24.53;;;15.60;29.30;;;;;;20860;6803;117366;-76
2022/03/26 08:10:53;;;;;;;30.87;27.77;;;15.80;29.40;;;;;;20642;6803;278209;-69
2022/03/26 08:13:20;;;;;;;33.23;29.67;;;16.50;27.90;;;;;;20637;6803;307403;-72
2022/03/26 08:15:45;;;;;;;32.87;29.13;;;16.50;28.40;;;;;;20626;6803;276526;-74
2022/03/26 08:18:11;;;;;;;27.70;24.80;;;16.90;27.70;;;;;;20863;6803;117993;-74
2022/03/26 08:20:36;;;;;;;33.60;29.27;;;16.80;27.60;;;;;;20643;6803;277280;-73
2022/03/26 08:23:02;;;;;;;31.43;27.17;;;16.90;27.10;;;;;;20855;6803;117505;-71
2022/03/26 08:28:13;;;;;;;29.63;25.90;;;16.80;27.90;;;;;;20852;6803;117636;-71
2022/03/26 08:30:39;;;;;;;29.52;24.58;;;16.70;28.30;;;;;;20850;6803;117471;-70
2022/03/26 08:33:04;;;;;;;30.67;27.67;;;16.70;28.70;;;;;;20630;6803;297385;-71
2022/03/26 08:35:33;;;;;;;30.93;26.27;;;17.00;28.70;;;;;;20851;6803;117420;-70
2022/03/26 08:37:58;;;;;;;31.07;26.07;;;17.20;28.60;;;;;;20844;6803;121325;-71
2022/03/26 08:40:24;;;;;;;31.40;28.10;;;17.20;28.30;;;;;;20651;6803;307473;-74
2022/03/26 08:42:49;;;;;;;31.40;26.63;;;17.40;27.50;;;;;;20862;6804;117438;-70
2022/03/26 08:45:15;;;;;;;32.22;28.08;;;17.60;27.70;;;;;;20643;6804;338905;-74
2022/03/26 08:47:41;;;;;;;30.00;26.80;;;17.80;26.60;;;;;;20835;6804;117526;-70
2022/03/26 08:50:06;;;;;;;30.50;25.07;;;18.00;26.90;;;;;;20848;6804;117504;-73
2022/03/26 08:52:34;;;;;;;32.70;25.97;;;17.90;27.10;;;;;;20852;6804;117830;-74
2022/03/26 08:54:58;;;;;;;52.43;46.97;;;17.90;27.20;;;;;;20628;6804;294963;-70
2022/03/26 08:57:24;;;;;;;35.00;30.33;;;18.60;26.50;;;;;;20637;6804;276793;-71
2022/03/26 08:59:50;;;;;;;33.95;30.27;;;18.60;26.50;;;;;;20625;6804;326320;-71
2022/03/26 09:02:15;;;;;;;33.97;30.33;;;19.00;25.70;;;;;;20635;6804;335418;-71
2022/03/26 09:04:41;;;;;;;31.73;27.97;;;19.20;25.80;;;;;;20855;6804;118227;-71
2022/03/26 09:07:07;;;;;;;35.67;30.33;;;19.30;25.20;;;;;;20626;6804;284611;-79
2022/03/26 09:09:32;;;;;;;34.57;30.67;;;19.30;25.00;;;;;;20634;6804;292329;-71
2022/03/26 09:11:58;;;;;;;32.20;28.17;;;19.50;25.00;;;;;;20817;6804;123353;-72
2022/03/26 09:14:24;;;;;;;34.00;30.30;;;19.40;25.40;;;;;;20628;6802;306960;-76
2022/03/26 09:16:49;;;;;;;33.25;29.58;;;19.50;25.60;;;;;;20637;6803;277833;-70
2022/03/26 09:19:15;;;;;;;33.57;30.13;;;19.80;25.90;;;;;;20629;6803;310619;-73
2022/03/26 09:21:41;;;;;;;31.53;27.17;;;20.00;25.30;;;;;;20830;6803;121541;-70
2022/03/26 09:24:06;;;;;;;33.13;29.53;;;20.00;25.30;;;;;;20634;6803;283657;-72
2022/03/26 09:26:32;;;;;;;35.95;27.80;;;20.10;24.60;;;;;;20831;6803;119551;-71
2022/03/26 09:28:58;;;;;;;34.80;28.90;;;20.00;24.90;;;;;;20817;6803;117874;-70
2022/03/26 09:31:24;;;;;;;36.35;32.45;;;19.80;25.00;;;;;;20610;6803;307784;-75
2022/03/26 09:33:50;;;;;;;32.60;27.47;;;19.80;25.00;;;;;;20826;6803;117973;-73
2022/03/26 09:36:15;;;;;;;31.57;26.80;;;19.80;25.20;;;;;;20854;6803;123428;-69
2022/03/26 09:38:42;;;;;;;36.17;30.62;;;19.70;25.40;;;;;;20641;6803;277260;-72
2022/03/26 09:41:07;;;;;;;32.53;27.40;;;19.80;24.60;;;;;;20851;6803;117868;-68
2022/03/26 09:43:33;;;;;;;33.90;27.37;;;19.80;24.60;;;;;;20850;6803;117497;-69
2022/03/26 09:45:59;;;;;;;35.30;29.90;;;19.90;24.10;;;;;;20613;6803;277935;-70
2022/03/26 09:48:25;;;;;;;33.13;29.63;;;19.90;24.10;;;;;;20644;6803;306944;-76
2022/03/26 09:50:50;;;;;;;35.20;31.50;;;20.20;24.00;;;;;;20643;6803;307266;-70
2022/03/26 09:53:16;;;;;;;33.63;28.63;;;20.40;23.40;;;;;;20854;6804;117946;-70
2022/03/26 09:55:41;;;;;;;33.60;27.30;;;20.30;23.60;;;;;;20836;6804;117969;-73
2022/03/26 09:58:07;;;;;;;33.70;30.03;;;20.10;23.70;;;;;;20637;6804;276577;-71
2022/03/26 10:00:33;;;;;;;33.17;29.27;;;20.30;24.20;;;;;;20632;6804;309879;-75
2022/03/26 10:02:59;;;;;;;34.42;30.42;;;20.30;24.20;;;;;;20638;6804;277020;-71
2022/03/26 10:05:31;;;;;;;36.67;29.07;;;20.70;23.90;;;;;;20848;6804;118898;-73
2022/03/26 10:07:58;;;;;;;34.50;30.80;;;20.80;23.50;;;;;;20611;6804;306009;-70
2022/03/26 10:10:23;;;;;;;30.53;27.20;;;20.80;23.50;;;;;;20857;6804;68106;-68
2022/03/26 10:12:48;;;;;;;33.97;30.30;;;20.80;23.50;;;;;;20626;6804;336370;-68
2022/03/26 10:15:14;;;;;;;36.65;28.25;;;20.80;22.90;;;;;;20817;6804;117623;-73
2022/03/26 10:17:39;;;;;;;32.22;27.40;;;20.80;23.20;;;;;;20810;6804;117859;-67
2022/03/26 10:20:05;;;;;;;37.92;30.75;;;20.50;23.40;;;;;;20633;6804;305930;-68
2022/03/26 10:22:37;;;;;;;35.80;31.03;;;20.60;22.90;;;;;;20621;6804;284255;-71
2022/03/26 10:25:13;;;;;;;34.88;31.20;;;20.80;23.50;;;;;;20623;6804;340199;-68
2022/03/26 10:27:42;;;;;;;35.90;30.85;;;21.00;23.30;;;;;;20609;6802;307621;-70
2022/03/26 10:30:07;;;;;;;31.70;27.47;;;21.30;23.30;;;;;;20827;6803;117587;-71
2022/03/26 10:32:39;;;;;;;37.23;28.47;;;21.20;23.30;;;;;;20750;6803;119999;-70
2022/03/26 10:35:14;;;;;;;35.63;30.23;;;21.00;23.70;;;;;;20632;6803;306919;-70
2022/03/26 10:37:58;;;;;;;31.80;27.43;;;21.20;24.30;;;;;;20781;6803;117857;-68
2022/03/26 10:40:32;;;;;;;36.70;31.58;;;21.30;23.90;;;;;;20637;6803;335757;-68
2022/03/26 10:43:04;;;;;;;38.00;31.10;;;21.40;22.60;;;;;;20639;6803;276550;-69
2022/03/26 10:45:30;;;;;;;34.53;28.90;;;21.60;22.40;;;;;;20848;6803;117446;-71
2022/03/26 10:47:55;;;;;;;34.70;30.97;;;21.40;22.70;;;;;;20617;6803;303298;-67
2022/03/26 10:50:21;;;;;;;31.42;27.27;;;21.30;22.70;;;;;;20840;6803;118453;-69
2022/03/26 10:52:47;;;;;;;31.63;27.03;;;21.40;22.80;;;;;;20844;6803;118665;-69
2022/03/26 10:55:15;;;;;;;34.05;30.48;;;21.20;22.90;;;;;;20635;6803;297186;-70
2022/03/26 10:57:41;;;;;;;35.80;28.27;;;21.20;22.50;;;;;;20823;6803;118050;-71
2022/03/26 11:00:09;;;;;;;31.83;27.97;;;21.00;23.30;;;;;;20843;6803;118032;-71
2022/03/26 11:02:33;;;;;;;31.97;26.77;;;21.10;22.70;;;;;;20852;6803;117411;-73
2022/03/26 11:04:59;;;;;;;32.80;29.37;;;20.90;22.90;;;;;;20648;6804;304202;-68
2022/03/26 11:07:25;;;;;;;29.53;26.10;;;21.10;22.90;;;;;;20862;6804;117322;-74
2022/03/26 11:09:50;;;;;;;34.72;29.95;;;21.20;22.90;;;;;;20627;6804;276817;-70
2022/03/26 11:12:17;;;;;;;33.75;29.15;;;21.50;22.30;;;;;;20642;6804;276712;-67
2022/03/26 11:14:41;;;;;;;33.15;29.58;;;21.80;21.70;;;;;;20568;6804;304628;-71
2022/03/26 11:17:27;;;;;;;31.65;27.25;;;22.00;21.70;;;;;;20828;6804;117971;-69
2022/03/26 11:20:02;;;;;;;31.90;28.70;;;22.00;21.70;;;;;;20612;6804;307618;-71
2022/03/26 11:22:28;;;;;;;32.57;29.17;;;22.00;21.10;;;;;;20609;6804;277778;-70
2022/03/26 11:25:06;;;;;;;31.45;28.25;;;22.20;21.00;;;;;;20632;6804;331215;-75
2022/03/26 11:27:45;;;;;;;32.22;28.98;;;22.30;21.20;;;;;;20621;6804;335809;-71
2022/03/26 11:30:16;;;;;;;31.07;27.40;;;22.30;21.20;;;;;;20812;6804;118159;-68
2022/03/26 11:32:46;;;;;;;32.33;28.92;;;22.20;21.20;;;;;;20623;6804;276914;-74
2022/03/26 11:35:15;;;;;;;30.50;27.25;;;22.10;21.00;;;;;;20643;6804;339078;-71
2022/03/26 11:37:53;;;;;;;33.67;27.33;;;22.30;21.50;;;;;;20826;6802;127566;-75
2022/03/26 11:40:39;;;;;;;33.10;25.60;;;22.30;21.40;;;;;;20839;6803;117639;-73
2022/03/26 11:43:04;;;;;;;31.97;24.80;;;22.00;21.30;;;;;;20851;6803;117378;-73
2022/03/26 11:51:15;;;;;;;28.70;25.60;;;21.70;21.00;;;;;;20855;6803;118070;-76
2022/03/26 11:53:42;;;;;;;30.67;25.17;;;21.50;21.20;;;;;;20786;6803;117574;-70
2022/03/26 11:56:05;;;;;;;31.57;25.97;;;21.40;21.30;;;;;;20866;6803;117669;-73
2022/03/26 11:58:31;;;;;;;31.05;27.77;;;21.20;21.30;;;;;;20648;6803;308690;-76
2022/03/26 12:01:03;;;;;;;28.60;25.47;;;21.30;20.50;;;;;;20843;6803;117484;-77
2022/03/26 12:03:29;;;;;;;30.60;27.50;;;21.50;20.60;;;;;;20624;6803;306008;-72
2022/03/26 12:08:40;;;;;;;31.60;24.57;;;21.50;20.90;;;;;;20850;6803;118121;-71
2022/03/26 12:11:05;;;;;;;28.77;24.60;;;21.40;21.00;;;;;;20845;6803;117491;-75
2022/03/26 12:13:31;;;;;;;27.90;23.80;;;21.30;21.10;;;;;;20851;6803;117954;-72
2022/03/26 12:16:05;;;;;;;31.47;28.07;;;21.30;21.10;;;;;;20617;6804;313971;-74
2022/03/26 12:18:30;;;;;;;27.53;24.53;;;21.40;21.20;;;;;;20847;6804;117916;-75
2022/03/26 12:20:55;;;;;;;30.63;27.50;;;21.40;21.10;;;;;;20615;6804;307409;-72
2022/03/26 12:23:28;;;;;;;28.53;25.73;;;21.50;20.60;;;;;;20612;6804;283028;-70
2022/03/26 12:25:54;;;;;;;30.30;26.33;;;21.90;20.20;;;;;;20616;6804;276756;-71
2022/03/26 12:28:25;;;;;;;27.97;24.27;;;21.90;20.10;;;;;;20826;6804;117609;-69
2022/03/26 12:30:50;;;;;;;26.27;23.43;;;21.80;20.30;;;;;;20853;6804;117244;-70
2022/03/26 12:33:16;;;;;;;31.30;23.20;;;21.60;20.90;;;;;;20826;6804;123695;-68
2022/03/26 12:35:45;;;;;;;25.90;23.10;;;21.50;21.10;;;;;;20831;6804;117567;-70
2022/03/26 12:38:11;;;;;;;26.67;22.30;;;21.20;20.60;;;;;;20846;6804;118508;-68
2022/03/26 12:40:38;;;;;;;28.30;22.27;;;21.20;20.60;;;;;;20847;6804;117784;-68
2022/03/26 12:43:02;;;;;;;26.83;22.60;;;21.20;20.80;;;;;;20843;6804;117418;-69
2022/03/26 12:45:28;;;;;;;25.87;22.17;;;21.00;21.00;;;;;;20852;6804;117474;-70